logo
Search for airport 
image banner adimage banner adimage banner ad
image banner ad

SQCI - El Cairo

Located in , Colombia

ICAO - , IATA -

Data provided by Airmate  

General information

Coordinates: N6°3'53" W71°12'16"
Elevation is 464 feet MSL.
Magnetic variation is -10° East
View others Airports in Casanare

Operational data

Special qualification required
Current time UTC:
Current local time:
Weather at : - ( 0 km )
METAR: PAPM 250611Z AUTO 00000KT 10SM SCT004 OVC070 09/08 A2992 RMK AO2
View NOTAMs / SUP AIP / TFR affecting this airport [VIEW]
Communications frequencies: [VIEW]

Runways:

RWY identifierQFULength (ft)Width (ft)SurfaceLDA (ft)
27265°3302140GRAS
0985°3302140GRAS

Airport contact information

Address: Colombia

Satellite view of SQCI